Time;durP1;ratioP1;P1;durP2;ratioP2;P2;SDS_P1;SDS_P2;PMS_P1;PMS_P2;Temp;Humidity;BMP_temperature;BMP_pressure;BME280_temperature;BME280_humidity;BME280_pressure;Samples;Min_cycle;Max_cycle;Signal;HPM_P1;HPM_P2
2023/03/31 00:01:11;;;;;;;10.68;2.08;;;;;;;;;;5032420;28;20025;-67
2023/03/31 00:03:42;;;;;;;5.60;2.25;;;;;;;;;;5032405;28;20135;-71
2023/03/31 00:06:10;;;;;;;6.22;2.00;;;;;;;;;;5032542;28;20387;-71
2023/03/31 00:08:35;;;;;;;5.57;2.30;;;;;;;;;;5032443;28;20077;-69
2023/03/31 00:11:06;;;;;;;5.78;2.00;;;;;;;;;;5032364;28;20034;-72
2023/03/31 00:13:31;;;;;;;;;;;;;;;;;;5032861;28;20029;-75
2023/03/31 00:15:59;;;;;;;5.85;2.30;;;;;;;;;;5032313;28;19953;-73
2023/03/31 00:18:25;;;;;;;8.32;2.20;;;;;;;;;;5032162;28;20029;-72
2023/03/31 00:20:52;;;;;;;7.53;2.72;;;;;;;;;;5032331;28;20087;-72
2023/03/31 00:23:26;;;;;;;6.38;2.30;;;;;;;;;;5032412;28;20095;-72
2023/03/31 00:25:51;;;;;;;7.72;2.25;;;;;;;;;;5032357;28;20056;-71
2023/03/31 00:28:17;;;;;;;7.88;2.33;;;;;;;;;;5032381;28;20034;-71
2023/03/31 00:30:42;;;;;;;5.65;2.05;;;;;;;;;;5032496;28;20026;-72
2023/03/31 00:33:08;;;;;;;7.22;2.83;;;;;;;;;;5019468;28;20018;-75
2023/03/31 00:35:37;;;;;;;5.65;2.72;;;;;;;;;;5052133;28;20032;-75
2023/03/31 00:38:04;;;;;;;7.35;2.65;;;;;;;;;;5051951;28;20021;-74
2023/03/31 00:40:30;;;;;;;10.35;2.75;;;;;;;;;;5051990;28;20474;-73
2023/03/31 00:42:56;;;;;;;6.70;2.50;;;;;;;;;;5052057;28;20033;-73
2023/03/31 00:45:26;;;;;;;8.07;2.33;;;;;;;;;;5051964;28;20033;-75
2023/03/31 00:48:03;;;;;;;6.97;2.65;;;;;;;;;;5049888;28;20120;-75
2023/03/31 00:50:34;;;;;;;4.75;2.20;;;;;;;;;;5031742;28;20499;-74
2023/03/31 00:53:14;;;;;;;6.43;2.50;;;;;;;;;;5032025;28;20037;-75
2023/03/31 00:55:47;;;;;;;8.18;2.70;;;;;;;;;;5032033;28;20037;-75
2023/03/31 00:58:19;;;;;;;8.45;2.53;;;;;;;;;;5032004;28;20565;-75
2023/03/31 01:00:51;;;;;;;8.63;2.40;;;;;;;;;;5032041;28;20030;-75
2023/03/31 01:03:21;;;;;;;8.20;2.40;;;;;;;;;;5033248;28;20022;-75
2023/03/31 01:05:50;;;;;;;7.10;2.77;;;;;;;;;;5035375;28;20029;-72
2023/03/31 01:08:23;;;;;;;5.57;2.20;;;;;;;;;;5035409;28;20609;-74
2023/03/31 01:10:53;;;;;;;7.55;2.40;;;;;;;;;;5035431;28;20032;-70
2023/03/31 01:13:20;;;;;;;6.57;2.58;;;;;;;;;;5035388;28;20041;-75
2023/03/31 01:15:45;;;;;;;6.57;2.60;;;;;;;;;;5035034;28;20219;-74
2023/03/31 01:18:13;;;;;;;8.70;2.55;;;;;;;;;;5035338;28;20052;-72
2023/03/31 01:20:50;;;;;;;6.57;2.78;;;;;;;;;;5035348;28;20079;-75
2023/03/31 01:23:27;;;;;;;6.90;2.70;;;;;;;;;;5035285;28;20049;-74
2023/03/31 01:26:22;;;;;;;10.95;2.63;;;;;;;;;;5034993;28;20026;-75
2023/03/31 01:29:05;;;;;;;7.95;3.25;;;;;;;;;;5017763;28;20486;-75
2023/03/31 01:31:31;;;;;;;6.07;2.50;;;;;;;;;;5034736;28;20037;-75
2023/03/31 01:33:56;;;;;;;7.68;2.88;;;;;;;;;;5046639;28;20032;-76
2023/03/31 01:36:36;;;;;;;8.68;2.70;;;;;;;;;;5054824;28;20497;-73
2023/03/31 01:39:17;;;;;;;6.18;2.58;;;;;;;;;;5054828;28;20107;-74
2023/03/31 01:42:00;;;;;;;;;;;;;;;;;;5055210;28;20061;-75
2023/03/31 01:44:35;;;;;;;5.32;2.33;;;;;;;;;;5054450;28;19917;-74
2023/03/31 01:47:24;;;;;;;10.07;3.10;;;;;;;;;;5054707;28;20029;-73
2023/03/31 01:49:59;;;;;;;9.80;2.80;;;;;;;;;;5054493;28;20029;-73
2023/03/31 01:52:41;;;;;;;9.48;3.15;;;;;;;;;;5036475;28;20383;-75
2023/03/31 01:55:34;;;;;;;8.05;2.92;;;;;;;;;;5054461;28;20126;-74
2023/03/31 01:58:07;;;;;;;8.52;3.13;;;;;;;;;;5054313;28;20032;-72
2023/03/31 02:00:50;;;;;;;10.90;3.25;;;;;;;;;;5054297;28;20543;-75
2023/03/31 02:03:25;;;;;;;7.32;2.70;;;;;;;;;;5054262;28;20037;-70
2023/03/31 02:05:59;;;;;;;5.93;2.53;;;;;;;;;;5054182;28;20036;-73
2023/03/31 02:08:30;;;;;;;7.20;2.97;;;;;;;;;;5054249;28;20057;-71
2023/03/31 02:10:57;;;;;;;8.18;2.88;;;;;;;;;;5054168;28;20115;-66
2023/03/31 02:13:26;;;;;;;6.55;3.30;;;;;;;;;;5054196;28;20029;-75
2023/03/31 02:15:56;;;;;;;7.90;3.60;;;;;;;;;;5052732;28;20386;-74
2023/03/31 02:18:26;;;;;;;7.80;2.70;;;;;;;;;;5054018;28;20025;-71
2023/03/31 02:20:56;;;;;;;6.35;2.78;;;;;;;;;;5054048;28;20025;-75
2023/03/31 02:23:25;;;;;;;9.55;2.60;;;;;;;;;;5053947;28;20052;-74
2023/03/31 02:26:01;;;;;;;7.55;2.97;;;;;;;;;;5053778;28;20033;-75
2023/03/31 02:28:27;;;;;;;5.20;2.72;;;;;;;;;;5053684;28;20063;-70
2023/03/31 02:31:16;;;;;;;7.57;3.10;;;;;;;;;;5053776;28;20505;-72
2023/03/31 02:33:42;;;;;;;6.57;2.70;;;;;;;;;;5053588;28;20042;-75
2023/03/31 02:36:08;;;;;;;8.13;2.70;;;;;;;;;;5053741;28;20135;-71
2023/03/31 02:38:39;;;;;;;10.43;3.15;;;;;;;;;;5053549;28;20036;-75
2023/03/31 02:41:05;;;;;;;7.65;2.95;;;;;;;;;;5053747;28;20048;-74
2023/03/31 02:43:30;;;;;;;11.48;3.20;;;;;;;;;;5053352;28;20111;-63
2023/03/31 02:45:56;;;;;;;8.07;3.35;;;;;;;;;;5053525;28;20179;-72
2023/03/31 02:48:26;;;;;;;7.15;2.95;;;;;;;;;;5053596;28;20525;-75
2023/03/31 02:51:07;;;;;;;7.03;3.10;;;;;;;;;;5053025;28;20499;-70
2023/03/31 02:53:47;;;;;;;7.43;3.83;;;;;;;;;;5053533;28;20064;-73
2023/03/31 02:56:22;;;;;;;9.75;3.80;;;;;;;;;;5053439;28;20040;-66
2023/03/31 02:59:15;;;;;;;10.48;3.83;;;;;;;;;;5053221;28;20356;-76
2023/03/31 03:01:40;;;;;;;6.85;3.28;;;;;;;;;;5053219;28;20028;-71
2023/03/31 03:04:48;;;;;;;8.00;3.25;;;;;;;;;;5053039;28;20029;-72
2023/03/31 03:07:23;;;;;;;9.88;4.10;;;;;;;;;;4972417;28;20038;-72
2023/03/31 03:10:08;;;;;;;11.75;3.20;;;;;;;;;;4972469;28;20121;-73
2023/03/31 03:12:41;;;;;;;10.85;4.97;;;;;;;;;;4972101;28;20035;-74
2023/03/31 03:15:12;;;;;;;11.55;3.70;;;;;;;;;;4972411;28;20044;-72
2023/03/31 03:17:46;;;;;;;7.43;3.70;;;;;;;;;;4972125;28;20553;-74
2023/03/31 03:20:13;;;;;;;7.10;3.30;;;;;;;;;;4972284;28;20038;-74
2023/03/31 03:22:39;;;;;;;12.23;3.65;;;;;;;;;;4971995;28;20041;-74
2023/03/31 03:25:08;;;;;;;11.20;4.03;;;;;;;;;;4972096;28;20039;-75
2023/03/31 03:27:34;;;;;;;12.68;4.15;;;;;;;;;;4971426;28;20046;-75
2023/03/31 03:30:02;;;;;;;7.10;3.78;;;;;;;;;;4972059;28;20191;-75
2023/03/31 03:32:28;;;;;;;9.23;3.83;;;;;;;;;;4972123;28;20086;-75
2023/03/31 03:34:53;;;;;;;8.98;3.50;;;;;;;;;;4971904;28;20135;-75
2023/03/31 03:37:18;;;;;;;12.20;4.13;;;;;;;;;;4991101;28;20033;-75
2023/03/31 03:39:44;;;;;;;9.60;3.70;;;;;;;;;;5052596;28;20017;-74
2023/03/31 03:42:09;;;;;;;10.40;3.88;;;;;;;;;;5052558;28;20033;-75
2023/03/31 03:44:35;;;;;;;8.85;3.70;;;;;;;;;;5052633;28;20104;-75
2023/03/31 03:47:00;;;;;;;11.50;4.00;;;;;;;;;;5052612;28;20612;-75
2023/03/31 03:49:26;;;;;;;10.18;3.80;;;;;;;;;;5052589;28;20021;-74
2023/03/31 03:51:51;;;;;;;9.43;4.63;;;;;;;;;;5052174;28;20055;-74
2023/03/31 03:54:17;;;;;;;10.70;3.67;;;;;;;;;;5052434;28;20378;-70
2023/03/31 03:56:42;;;;;;;9.27;3.88;;;;;;;;;;5052398;28;20032;-71
2023/03/31 03:59:08;;;;;;;12.27;4.78;;;;;;;;;;5052101;28;20104;-74
2023/03/31 04:01:33;;;;;;;8.80;3.80;;;;;;;;;;5052526;28;20124;-73
2023/03/31 04:03:58;;;;;;;8.15;3.70;;;;;;;;;;5052408;28;20061;-72
2023/03/31 04:06:24;;;;;;;11.93;4.18;;;;;;;;;;5052398;28;20021;-74
2023/03/31 04:08:50;;;;;;;6.90;3.50;;;;;;;;;;5052464;28;20430;-74
2023/03/31 04:11:17;;;;;;;11.15;4.00;;;;;;;;;;5052106;28;20033;-73
2023/03/31 04:13:43;;;;;;;9.90;3.88;;;;;;;;;;5052346;28;20447;-66
2023/03/31 04:16:09;;;;;;;11.98;3.95;;;;;;;;;;5052176;28;20141;-72
2023/03/31 04:18:36;;;;;;;9.80;4.85;;;;;;;;;;5052526;28;20047;-75
2023/03/31 04:21:05;;;;;;;9.50;3.90;;;;;;;;;;5052015;28;20115;-74
2023/03/31 04:23:31;;;;;;;8.25;3.67;;;;;;;;;;5052399;28;20025;-73
2023/03/31 04:25:57;;;;;;;10.70;3.60;;;;;;;;;;5052051;28;20032;-70
2023/03/31 04:28:22;;;;;;;10.30;3.65;;;;;;;;;;5052215;28;20470;-73
2023/03/31 04:30:48;;;;;;;12.18;3.95;;;;;;;;;;5052099;28;20049;-74
2023/03/31 04:33:14;;;;;;;12.73;3.55;;;;;;;;;;5051881;28;20408;-75
2023/03/31 04:35:51;;;;;;;9.77;3.47;;;;;;;;;;5051963;28;20086;-73
2023/03/31 04:38:18;;;;;;;11.23;3.60;;;;;;;;;;5053376;28;20385;-71
2023/03/31 04:40:48;;;;;;;10.95;3.75;;;;;;;;;;5055417;28;20025;-66
2023/03/31 04:43:14;;;;;;;;;;;;;;;;;;5056176;28;20404;-71
2023/03/31 04:45:40;;;;;;;13.93;3.78;;;;;;;;;;5055454;28;19916;-68
2023/03/31 04:48:05;;;;;;;8.73;3.60;;;;;;;;;;5055979;28;20028;-70
2023/03/31 04:50:31;;;;;;;9.00;4.32;;;;;;;;;;5055313;28;20151;-66
2023/03/31 04:52:57;;;;;;;9.15;3.47;;;;;;;;;;5055416;28;20108;-71
2023/03/31 04:55:23;;;;;;;6.85;3.33;;;;;;;;;;5055612;28;20029;-69
2023/03/31 04:57:48;;;;;;;11.73;3.72;;;;;;;;;;5055599;28;20452;-73
2023/03/31 05:00:14;;;;;;;7.10;3.83;;;;;;;;;;5055657;28;20033;-71
2023/03/31 05:02:40;;;;;;;9.68;3.88;;;;;;;;;;5055303;28;20029;-74
2023/03/31 05:05:05;;;;;;;14.52;3.65;;;;;;;;;;5055289;28;20079;-75
2023/03/31 05:07:31;;;;;;;7.88;3.50;;;;;;;;;;5055164;28;20047;-74
2023/03/31 05:09:56;;;;;;;10.60;3.58;;;;;;;;;;5055023;28;20576;-68
2023/03/31 05:12:22;;;;;;;10.93;3.67;;;;;;;;;;5054967;28;20036;-69
2023/03/31 05:14:47;;;;;;;11.02;3.78;;;;;;;;;;5055154;28;20029;-62
2023/03/31 05:17:13;;;;;;;12.00;3.72;;;;;;;;;;5055136;28;20086;-64
2023/03/31 05:19:38;;;;;;;10.57;3.72;;;;;;;;;;5055218;28;20029;-63
2023/03/31 05:22:04;;;;;;;8.27;3.72;;;;;;;;;;5054878;28;20032;-63
2023/03/31 05:24:30;;;;;;;10.32;4.07;;;;;;;;;;5055175;28;20119;-62
2023/03/31 05:26:56;;;;;;;10.20;3.90;;;;;;;;;;5055047;28;20085;-75
2023/03/31 05:29:22;;;;;;;11.02;3.90;;;;;;;;;;5055022;28;20021;-68
2023/03/31 05:31:48;;;;;;;7.13;3.08;;;;;;;;;;5036926;28;20032;-69
2023/03/31 05:34:14;;;;;;;8.13;3.20;;;;;;;;;;5054893;28;20033;-63
2023/03/31 05:36:42;;;;;;;9.15;3.40;;;;;;;;;;5054586;28;20574;-74
2023/03/31 05:39:08;;;;;;;10.52;3.67;;;;;;;;;;5054782;28;20029;-72
2023/03/31 05:41:34;;;;;;;12.82;4.30;;;;;;;;;;5054507;28;20467;-72
2023/03/31 05:44:00;;;;;;;10.25;4.50;;;;;;;;;;5054849;28;20036;-70
2023/03/31 05:46:27;;;;;;;14.27;5.20;;;;;;;;;;5054616;28;20032;-70
2023/03/31 05:48:52;;;;;;;12.65;4.38;;;;;;;;;;5054411;28;20031;-74
2023/03/31 05:51:17;;;;;;;9.52;3.75;;;;;;;;;;5053851;28;20140;-72
2023/03/31 05:53:43;;;;;;;9.48;3.90;;;;;;;;;;5054549;28;20070;-74
2023/03/31 05:56:09;;;;;;;12.18;3.78;;;;;;;;;;5054233;28;20025;-75
2023/03/31 05:58:35;;;;;;;10.10;3.90;;;;;;;;;;5054306;28;20130;-74
2023/03/31 06:01:06;;;;;;;9.50;3.55;;;;;;;;;;5054322;28;20036;-74
2023/03/31 06:03:33;;;;;;;10.38;3.55;;;;;;;;;;5054352;28;20150;-74
2023/03/31 06:05:58;;;;;;;9.45;3.63;;;;;;;;;;5036252;28;20474;-74
2023/03/31 06:08:24;;;;;;;11.90;4.38;;;;;;;;;;5053608;28;20098;-73
2023/03/31 06:10:49;;;;;;;10.18;3.33;;;;;;;;;;5054146;28;20505;-74
2023/03/31 06:13:15;;;;;;;12.25;3.90;;;;;;;;;;5054390;28;20028;-74
2023/03/31 06:15:41;;;;;;;9.60;3.83;;;;;;;;;;5054270;28;20037;-72
2023/03/31 06:18:09;;;;;;;10.50;3.42;;;;;;;;;;5054312;28;20028;-73
2023/03/31 06:20:35;;;;;;;11.23;3.10;;;;;;;;;;5053847;28;20120;-74
2023/03/31 06:23:01;;;;;;;12.88;3.70;;;;;;;;;;5054133;28;20114;-73
2023/03/31 06:25:26;;;;;;;5.35;3.67;;;;;;;;;;5054029;28;20482;-73
2023/03/31 06:27:52;;;;;;;7.65;3.50;;;;;;;;;;5053822;28;20052;-74
2023/03/31 06:30:17;;;;;;;6.65;3.28;;;;;;;;;;5053561;28;20021;-74
2023/03/31 06:32:43;;;;;;;7.10;3.40;;;;;;;;;;5053798;28;20481;-75
2023/03/31 06:35:08;;;;;;;11.02;3.47;;;;;;;;;;5053586;28;20021;-71
2023/03/31 06:37:34;;;;;;;8.98;3.22;;;;;;;;;;5053860;28;20028;-74
2023/03/31 06:40:00;;;;;;;12.70;3.47;;;;;;;;;;5053642;28;20063;-72
2023/03/31 06:42:25;;;;;;;13.73;4.15;;;;;;;;;;5053564;28;20025;-75
2023/03/31 06:44:50;;;;;;;8.27;3.30;;;;;;;;;;5053688;28;20021;-72
2023/03/31 06:47:16;;;;;;;10.25;3.33;;;;;;;;;;5053579;28;20352;-72
2023/03/31 06:49:41;;;;;;;9.57;2.90;;;;;;;;;;5019309;28;20076;-74
2023/03/31 06:52:07;;;;;;;7.68;3.03;;;;;;;;;;5013593;28;20046;-69
2023/03/31 06:54:32;;;;;;;8.02;3.35;;;;;;;;;;5013894;28;20384;-74
2023/03/31 06:56:58;;;;;;;9.98;3.30;;;;;;;;;;5013910;28;20379;-76
2023/03/31 06:59:23;;;;;;;9.07;2.97;;;;;;;;;;5013869;28;20486;-77
2023/03/31 07:01:49;;;;;;;9.48;2.90;;;;;;;;;;5013232;28;20117;-77
2023/03/31 07:04:15;;;;;;;10.60;3.60;;;;;;;;;;5013493;28;20455;-77
2023/03/31 07:06:40;;;;;;;8.82;3.10;;;;;;;;;;5013727;28;20022;-75
2023/03/31 07:09:06;;;;;;;8.80;3.13;;;;;;;;;;5013366;28;20026;-73
2023/03/31 07:11:31;;;;;;;7.13;3.00;;;;;;;;;;5012433;28;20048;-73
2023/03/31 07:13:57;;;;;;;12.05;3.40;;;;;;;;;;5032514;28;20029;-77
2023/03/31 07:16:22;;;;;;;8.50;3.25;;;;;;;;;;5032775;28;20017;-73
2023/03/31 07:18:49;;;;;;;8.38;3.00;;;;;;;;;;5032700;28;20033;-73
2023/03/31 07:21:14;;;;;;;7.20;2.58;;;;;;;;;;5032504;28;20040;-71
2023/03/31 07:23:40;;;;;;;7.25;3.00;;;;;;;;;;5032674;28;20025;-69
2023/03/31 07:26:06;;;;;;;5.13;2.25;;;;;;;;;;5032758;28;20033;-70
2023/03/31 07:28:31;;;;;;;6.50;2.83;;;;;;;;;;5032445;28;20112;-70
2023/03/31 07:30:57;;;;;;;11.90;2.80;;;;;;;;;;5032216;28;20372;-70
2023/03/31 07:33:23;;;;;;;8.68;2.33;;;;;;;;;;5038964;28;20178;-73
2023/03/31 07:35:48;;;;;;;8.70;2.30;;;;;;;;;;5052188;28;20362;-68
2023/03/31 07:38:14;;;;;;;8.43;2.58;;;;;;;;;;5052420;28;20024;-71
2023/03/31 07:40:40;;;;;;;7.20;2.65;;;;;;;;;;5052447;28;20371;-67
2023/03/31 07:43:06;;;;;;;7.03;2.40;;;;;;;;;;5052080;28;20183;-76
2023/03/31 07:45:32;;;;;;;7.53;2.70;;;;;;;;;;5052023;28;20155;-70
2023/03/31 07:47:58;;;;;;;7.10;2.40;;;;;;;;;;5052084;28;20025;-77
2023/03/31 07:50:24;;;;;;;6.47;2.90;;;;;;;;;;5051722;28;20351;-76
2023/03/31 07:52:50;;;;;;;11.10;2.50;;;;;;;;;;5052422;28;20053;-74
2023/03/31 07:55:16;;;;;;;7.18;2.30;;;;;;;;;;5052081;28;20029;-74
2023/03/31 07:57:44;;;;;;;6.53;2.28;;;;;;;;;;5052218;28;20048;-77
2023/03/31 08:00:11;;;;;;;6.32;2.33;;;;;;;;;;5052328;28;20408;-77
2023/03/31 08:02:37;;;;;;;5.07;1.90;;;;;;;;;;5051996;28;20116;-72
2023/03/31 08:05:04;;;;;;;7.50;2.00;;;;;;;;;;5052087;28;20021;-75
2023/03/31 08:07:33;;;;;;;4.72;2.08;;;;;;;;;;5037025;28;20041;-73
2023/03/31 08:09:58;;;;;;;6.30;2.25;;;;;;;;;;5031570;28;20083;-71
2023/03/31 08:12:24;;;;;;;6.15;2.20;;;;;;;;;;5033714;28;20029;-69
2023/03/31 08:14:50;;;;;;;4.82;2.33;;;;;;;;;;5036430;28;20025;-74
2023/03/31 08:17:15;;;;;;;8.60;2.20;;;;;;;;;;5035845;28;20104;-75
2023/03/31 08:19:42;;;;;;;5.68;2.10;;;;;;;;;;5036222;28;20033;-66
2023/03/31 08:22:07;;;;;;;5.85;2.40;;;;;;;;;;5036196;28;20044;-77
2023/03/31 08:24:33;;;;;;;6.75;2.20;;;;;;;;;;5036029;28;20021;-68
2023/03/31 08:26:58;;;;;;;6.93;2.03;;;;;;;;;;5036039;28;20036;-71
2023/03/31 08:29:24;;;;;;;8.00;2.20;;;;;;;;;;5035719;28;20033;-78
2023/03/31 08:31:50;;;;;;;8.55;2.50;;;;;;;;;;5035647;28;20041;-75
2023/03/31 08:34:15;;;;;;;8.18;2.65;;;;;;;;;;5050382;28;20091;-79
2023/03/31 08:36:41;;;;;;;6.93;2.38;;;;;;;;;;5055710;28;20027;-77
2023/03/31 08:39:07;;;;;;;6.72;2.50;;;;;;;;;;5055554;28;20382;-79
2023/03/31 08:41:50;;;;;;;5.75;2.30;;;;;;;;;;5055688;28;20032;-78
2023/03/31 08:44:36;;;;;;;5.75;2.40;;;;;;;;;;5055834;28;20492;-78
2023/03/31 08:47:04;;;;;;;6.15;2.00;;;;;;;;;;4974411;28;20102;-72
2023/03/31 08:49:47;;;;;;;4.38;2.05;;;;;;;;;;4974492;28;20039;-79
2023/03/31 08:52:23;;;;;;;6.15;2.35;;;;;;;;;;4974437;28;20292;-78
2023/03/31 08:54:54;;;;;;;11.25;2.20;;;;;;;;;;4974552;28;20041;-76
2023/03/31 08:57:27;;;;;;;7.72;2.10;;;;;;;;;;4974356;28;20098;-78
2023/03/31 08:59:57;;;;;;;8.18;2.50;;;;;;;;;;4974134;28;20030;-77
2023/03/31 09:02:37;;;;;;;;;;;;;;;;;;4974909;28;20027;-78
2023/03/31 09:05:24;;;;;;;7.03;2.63;;;;;;;;;;4974259;28;19914;-76
2023/03/31 09:08:12;;;;;;;7.47;2.33;;;;;;;;;;4956902;28;20159;-79
2023/03/31 09:10:45;;;;;;;8.68;2.50;;;;;;;;;;4955047;29;20047;-78
2023/03/31 09:13:30;;;;;;;7.22;2.30;;;;;;;;;;4954815;29;20504;-78
2023/03/31 09:16:10;;;;;;;7.35;2.42;;;;;;;;;;4954689;29;20031;-79
2023/03/31 09:18:37;;;;;;;5.10;2.15;;;;;;;;;;4954795;29;20496;-67
2023/03/31 09:21:10;;;;;;;8.70;2.80;;;;;;;;;;4954726;29;20042;-76
2023/03/31 09:23:44;;;;;;;10.68;2.78;;;;;;;;;;4976470;28;20033;-77
2023/03/31 09:26:25;;;;;;;6.60;2.58;;;;;;;;;;5034700;28;20030;-75
2023/03/31 09:28:51;;;;;;;11.50;2.65;;;;;;;;;;5034552;28;20173;-79
2023/03/31 09:31:19;;;;;;;9.23;2.75;;;;;;;;;;5034228;28;20143;-78
2023/03/31 09:33:46;;;;;;;6.82;2.50;;;;;;;;;;5044867;28;20032;-79
2023/03/31 09:36:17;;;;;;;6.90;2.63;;;;;;;;;;5054639;28;20052;-63
2023/03/31 09:38:43;;;;;;;10.30;2.80;;;;;;;;;;5054615;28;20115;-66
2023/03/31 09:41:11;;;;;;;8.52;2.58;;;;;;;;;;5054405;28;20025;-76
2023/03/31 09:43:40;;;;;;;8.57;2.40;;;;;;;;;;5054374;28;20335;-78
2023/03/31 09:46:17;;;;;;;8.68;2.38;;;;;;;;;;5054275;28;20398;-79
2023/03/31 09:48:58;;;;;;;7.15;2.50;;;;;;;;;;5054582;28;20025;-77
2023/03/31 09:51:31;;;;;;;10.90;3.05;;;;;;;;;;5053984;28;20521;-75
2023/03/31 09:54:23;;;;;;;12.57;5.00;;;;;;;;;;5054494;28;20021;-78
2023/03/31 09:56:54;;;;;;;8.15;3.20;;;;;;;;;;5054212;28;20394;-66
2023/03/31 09:59:30;;;;;;;7.65;2.53;;;;;;;;;;5053918;28;20086;-63
2023/03/31 10:01:58;;;;;;;7.15;2.60;;;;;;;;;;5054100;28;20033;-79
2023/03/31 10:04:31;;;;;;;8.35;2.60;;;;;;;;;;5054035;28;20025;-77
2023/03/31 10:06:58;;;;;;;8.30;2.65;;;;;;;;;;5043631;28;20030;-76
2023/03/31 10:09:32;;;;;;;11.80;3.00;;;;;;;;;;5033803;28;20044;-79
2023/03/31 10:12:16;;;;;;;9.63;2.65;;;;;;;;;;5033141;28;20033;-73
2023/03/31 10:14:50;;;;;;;6.32;2.47;;;;;;;;;;5033900;28;20025;-66
2023/03/31 10:17:26;;;;;;;10.48;3.00;;;;;;;;;;5033766;28;20036;-69
2023/03/31 10:19:55;;;;;;;8.93;2.60;;;;;;;;;;5033739;28;20171;-75
2023/03/31 10:22:20;;;;;;;10.70;3.07;;;;;;;;;;5016309;28;20074;-78
2023/03/31 10:24:48;;;;;;;7.55;2.40;;;;;;;;;;5033663;28;20481;-72
2023/03/31 10:27:25;;;;;;;7.72;2.85;;;;;;;;;;5033121;28;20021;-74
2023/03/31 10:29:55;;;;;;;7.97;2.47;;;;;;;;;;5033568;28;20402;-77
2023/03/31 10:32:23;;;;;;;7.57;2.53;;;;;;;;;;5033333;28;20088;-79
2023/03/31 10:34:49;;;;;;;9.77;3.03;;;;;;;;;;5052368;28;20029;-70
2023/03/31 10:37:22;;;;;;;11.85;3.42;;;;;;;;;;5052531;28;20168;-79
2023/03/31 10:39:56;;;;;;;12.50;3.25;;;;;;;;;;5053433;28;20069;-65
2023/03/31 10:42:23;;;;;;;9.48;3.25;;;;;;;;;;5053219;28;20032;-71
2023/03/31 10:44:48;;;;;;;12.13;2.80;;;;;;;;;;5053453;28;20437;-75
2023/03/31 10:47:18;;;;;;;9.15;2.70;;;;;;;;;;5053249;28;20089;-73
2023/03/31 10:49:47;;;;;;;7.97;2.65;;;;;;;;;;5053012;28;20029;-72
2023/03/31 10:52:26;;;;;;;10.25;2.97;;;;;;;;;;5052853;28;20049;-65
2023/03/31 10:54:59;;;;;;;10.68;3.47;;;;;;;;;;5053002;28;20096;-64
2023/03/31 10:57:55;;;;;;;8.82;2.67;;;;;;;;;;5069396;28;20429;-70
2023/03/31 11:00:23;;;;;;;9.73;2.88;;;;;;;;;;5069651;28;20104;-66
2023/03/31 11:03:19;;;;;;;9.77;3.30;;;;;;;;;;5069654;28;20147;-64
2023/03/31 11:05:55;;;;;;;13.73;3.05;;;;;;;;;;5069606;28;20385;-65
2023/03/31 11:08:21;;;;;;;9.95;3.25;;;;;;;;;;5069213;28;20538;-75
2023/03/31 11:11:01;;;;;;;11.25;3.08;;;;;;;;;;5069348;28;20087;-62
2023/03/31 11:14:04;;;;;;;7.22;2.40;;;;;;;;;;5069374;28;20024;-77
2023/03/31 11:16:51;;;;;;;9.80;2.90;;;;;;;;;;5069279;28;20470;-66
2023/03/31 11:19:42;;;;;;;10.98;2.97;;;;;;;;;;5069291;28;20025;-76
2023/03/31 11:22:20;;;;;;;10.98;3.03;;;;;;;;;;5069393;28;20063;-71
2023/03/31 11:25:17;;;;;;;9.52;3.17;;;;;;;;;;5068871;28;20112;-77
2023/03/31 11:28:13;;;;;;;10.80;2.95;;;;;;;;;;5069129;28;20059;-82
2023/03/31 11:30:41;;;;;;;11.68;3.38;;;;;;;;;;5069457;28;20028;-80
2023/03/31 11:33:12;;;;;;;10.93;2.80;;;;;;;;;;5068703;28;20067;-79
2023/03/31 11:35:52;;;;;;;10.00;2.40;;;;;;;;;;5068748;28;20542;-79
2023/03/31 11:38:23;;;;;;;9.43;3.30;;;;;;;;;;5068884;28;20033;-78
2023/03/31 11:41:10;;;;;;;8.13;3.00;;;;;;;;;;5068412;28;20024;-74
2023/03/31 11:43:44;;;;;;;8.15;2.45;;;;;;;;;;5068780;28;20563;-70
2023/03/31 11:46:19;;;;;;;7.43;2.00;;;;;;;;;;5068670;28;20094;-65
2023/03/31 11:48:58;;;;;;;8.75;2.30;;;;;;;;;;5066800;28;20378;-71
2023/03/31 11:51:44;;;;;;;8.65;2.60;;;;;;;;;;5075510;28;20032;-70
2023/03/31 11:54:18;;;;;;;7.13;1.88;;;;;;;;;;5087884;28;20077;-71
2023/03/31 11:56:44;;;;;;;9.82;2.55;;;;;;;;;;5085032;28;20064;-68
2023/03/31 11:59:15;;;;;;;10.52;2.47;;;;;;;;;;5068087;28;20104;-69
2023/03/31 12:02:01;;;;;;;8.13;2.10;;;;;;;;;;5068041;28;20389;-74
2023/03/31 12:04:33;;;;;;;11.25;2.33;;;;;;;;;;5076591;28;20537;-63
2023/03/31 12:07:28;;;;;;;7.72;2.78;;;;;;;;;;5071977;28;20462;-65
2023/03/31 12:10:15;;;;;;;12.63;2.83;;;;;;;;;;5053450;28;20076;-66
2023/03/31 12:13:21;;;;;;;8.60;1.88;;;;;;;;;;5054037;28;20083;-68
2023/03/31 12:16:16;;;;;;;8.38;1.92;;;;;;;;;;5053647;28;20490;-72
2023/03/31 12:19:16;;;;;;;7.72;2.28;;;;;;;;;;5054541;28;20497;-73
2023/03/31 12:21:47;;;;;;;7.20;2.03;;;;;;;;;;5053008;28;20098;-72
2023/03/31 12:24:13;;;;;;;10.27;2.28;;;;;;;;;;5052699;28;20029;-73
2023/03/31 12:27:08;;;;;;;12.05;2.25;;;;;;;;;;5053614;28;20129;-69
2023/03/31 12:29:38;;;;;;;8.38;2.25;;;;;;;;;;5053728;28;20029;-66
2023/03/31 12:32:15;;;;;;;6.10;2.03;;;;;;;;;;5053767;28;20088;-70
2023/03/31 12:34:45;;;;;;;7.15;2.13;;;;;;;;;;5053972;28;20373;-72
2023/03/31 12:37:32;;;;;;;7.70;2.00;;;;;;;;;;5054062;28;20064;-65
2023/03/31 12:40:00;;;;;;;10.18;1.70;;;;;;;;;;5054520;28;20504;-74
2023/03/31 12:43:14;;;;;;;8.18;1.92;;;;;;;;;;5054298;28;20032;-70
2023/03/31 12:45:53;;;;;;;7.18;1.80;;;;;;;;;;5032151;28;20046;-80
2023/03/31 12:48:41;;;;;;;7.28;1.80;;;;;;;;;;5032320;28;20033;-63
2023/03/31 12:51:15;;;;;;;8.73;2.10;;;;;;;;;;5032070;28;20475;-67
2023/03/31 12:53:59;;;;;;;7.15;2.00;;;;;;;;;;5031850;28;20029;-63
2023/03/31 12:56:24;;;;;;;8.90;2.20;;;;;;;;;;5031798;28;20490;-64
2023/03/31 12:58:50;;;;;;;7.60;2.05;;;;;;;;;;5029603;28;20056;-67
2023/03/31 13:01:15;;;;;;;9.88;1.65;;;;;;;;;;5028949;28;20026;-72
2023/03/31 13:03:48;;;;;;;10.13;2.30;;;;;;;;;;5026446;28;20363;-70
2023/03/31 13:06:28;;;;;;;5.32;1.90;;;;;;;;;;5031606;28;20021;-68
2023/03/31 13:09:04;;;;;;;10.68;2.17;;;;;;;;;;5014976;28;20395;-69
2023/03/31 13:11:36;;;;;;;8.95;2.22;;;;;;;;;;5031611;28;20508;-64
2023/03/31 13:14:19;;;;;;;10.27;2.42;;;;;;;;;;5031938;28;20037;-70
2023/03/31 13:16:46;;;;;;;8.73;2.60;;;;;;;;;;5031571;28;20145;-63
2023/03/31 13:19:27;;;;;;;10.23;2.28;;;;;;;;;;5030716;28;20033;-62
2023/03/31 13:21:55;;;;;;;10.23;2.35;;;;;;;;;;5040515;28;20139;-70
2023/03/31 13:24:22;;;;;;;3.80;1.20;;;;;;;;;;5053318;28;20025;-73
2023/03/31 13:26:48;;;;;;;7.32;1.63;;;;;;;;;;5053431;28;20032;-62
2023/03/31 13:29:14;;;;;;;4.03;1.20;;;;;;;;;;5052561;28;20092;-67
2023/03/31 13:32:01;;;;;;;6.30;1.70;;;;;;;;;;5053252;28;20025;-77
2023/03/31 13:34:43;;;;;;;8.25;2.00;;;;;;;;;;5052769;28;20029;-63
2023/03/31 13:37:30;;;;;;;5.47;1.40;;;;;;;;;;5052994;28;20120;-63
2023/03/31 13:40:14;;;;;;;20.27;15.55;;;;;;;;;;5053420;28;20032;-68
2023/03/31 13:42:57;;;;;;;9.30;3.60;;;;;;;;;;5052969;28;20111;-66
2023/03/31 13:45:31;;;;;;;3.63;1.60;;;;;;;;;;5053026;28;20355;-66
2023/03/31 13:48:15;;;;;;;5.38;1.80;;;;;;;;;;5053017;28;20130;-70
2023/03/31 13:50:56;;;;;;;7.32;1.73;;;;;;;;;;5052896;28;20083;-68
2023/03/31 13:53:38;;;;;;;4.57;1.50;;;;;;;;;;5053094;28;20085;-63
2023/03/31 13:56:18;;;;;;;6.63;2.15;;;;;;;;;;5052773;28;20061;-63
2023/03/31 13:58:49;;;;;;;7.38;1.90;;;;;;;;;;5033198;28;20463;-67
2023/03/31 14:01:39;;;;;;;5.75;1.90;;;;;;;;;;5032750;28;20395;-69
2023/03/31 14:04:24;;;;;;;8.57;1.95;;;;;;;;;;5032735;28;20040;-65
2023/03/31 14:06:58;;;;;;;3.92;1.85;;;;;;;;;;5049164;28;20113;-77
2023/03/31 14:09:31;;;;;;;6.55;2.00;;;;;;;;;;5052048;28;20111;-79
2023/03/31 14:11:58;;;;;;;6.40;2.25;;;;;;;;;;5053073;28;20467;-79
2023/03/31 14:14:25;;;;;;;6.18;2.10;;;;;;;;;;5051914;28;20471;-79
2023/03/31 14:16:54;;;;;;;5.75;2.28;;;;;;;;;;5052437;28;20036;-76
2023/03/31 14:19:32;;;;;;;8.88;2.85;;;;;;;;;;5050644;28;20536;-78
2023/03/31 14:22:24;;;;;;;6.53;2.22;;;;;;;;;;5052224;28;20103;-76
2023/03/31 14:25:25;;;;;;;6.80;2.10;;;;;;;;;;5052406;28;20405;-77
2023/03/31 14:28:03;;;;;;;8.50;2.00;;;;;;;;;;5009143;28;20044;-77
2023/03/31 14:30:47;;;;;;;5.80;2.08;;;;;;;;;;5009037;28;20117;-79
2023/03/31 14:33:41;;;;;;;6.60;2.70;;;;;;;;;;5008624;28;20038;-79
2023/03/31 14:36:24;;;;;;;6.00;1.92;;;;;;;;;;5008733;28;20049;-78
2023/03/31 14:38:50;;;;;;;5.18;1.30;;;;;;;;;;5009445;28;20033;-72
2023/03/31 14:41:19;;;;;;;3.67;1.05;;;;;;;;;;5009281;28;20033;-76
2023/03/31 14:43:49;;;;;;;1.73;0.80;;;;;;;;;;5009310;28;20041;-75
2023/03/31 14:46:20;;;;;;;3.33;0.88;;;;;;;;;;5007571;28;20585;-75
2023/03/31 14:48:47;;;;;;;3.42;1.00;;;;;;;;;;5001620;28;20058;-71
2023/03/31 14:51:15;;;;;;;3.75;1.10;;;;;;;;;;5008493;28;20073;-80
2023/03/31 14:53:42;;;;;;;2.00;1.00;;;;;;;;;;5008968;28;20610;-79
2023/03/31 14:56:19;;;;;;;1.90;0.80;;;;;;;;;;5008622;28;20050;-71
2023/03/31 14:58:49;;;;;;;2.65;1.08;;;;;;;;;;5009292;28;20129;-75
2023/03/31 15:01:18;;;;;;;3.20;1.17;;;;;;;;;;5008865;28;20061;-74
2023/03/31 15:03:45;;;;;;;1.83;1.10;;;;;;;;;;5035075;28;20025;-78
2023/03/31 15:06:12;;;;;;;4.13;1.30;;;;;;;;;;5049629;28;20025;-79
2023/03/31 15:08:38;;;;;;;3.30;1.30;;;;;;;;;;5049387;28;20060;-75